Time;durP1;ratioP1;P1;durP2;ratioP2;P2;SDS_P1;SDS_P2;PMS_P1;PMS_P2;Temp;Humidity;BMP_temperature;BMP_pressure;BME280_temperature;BME280_humidity;BME280_pressure;Samples;Min_cycle;Max_cycle;Signal;HPM_P1;HPM_P2
2022/01/13 00:00:34;;;;;;;76.60;31.23;;;;;;;-0.11;87.85;100771.45;1761468;81;20971;-40
2022/01/13 00:03:00;;;;;;;66.75;29.10;;;;;;;-0.12;87.99;100785.22;1761410;81;20995;-40
2022/01/13 00:05:29;;;;;;;67.75;27.67;;;;;;;-0.10;87.93;100787.39;1761457;81;20987;-40
2022/01/13 00:07:58;;;;;;;;;;;;;;;-0.16;88.10;100791.22;1763887;81;20967;-40
2022/01/13 00:10:27;;;;;;;63.33;27.55;;;;;;;-0.25;88.66;100794.97;1761450;80;20436;-40
2022/01/13 00:13:02;;;;;;;61.37;26.17;;;;;;;-0.23;88.82;100793.27;1761110;81;21488;-40
2022/01/13 00:15:37;;;;;;;64.67;25.30;;;;;;;-0.23;89.12;100796.72;1760784;80;20978;-40
2022/01/13 00:23:39;;;;;;;67.42;28.32;;;;;;;-0.15;88.97;100797.24;1761409;81;20999;-40
2022/01/13 00:25:20;;;;;;;62.48;25.40;;;;;;;-0.13;88.47;100791.66;1758815;81;20948;-39
2022/01/13 00:27:53;;;;;;;70.83;25.77;;;;;;;-0.04;88.13;100800.42;1761323;81;20965;-41
2022/01/13 00:30:15;;;;;;;61.25;25.08;;;;;;;-0.06;88.36;100811.58;1760618;81;21091;-40
2022/01/13 00:32:40;;;;;;;63.55;24.75;;;;;;;-0.05;88.58;100817.20;1761651;81;21484;-40
2022/01/13 00:35:08;;;;;;;57.83;24.25;;;;;;;-0.05;88.83;100807.72;1761486;81;20972;-41
2022/01/13 00:37:35;;;;;;;60.52;24.50;;;;;;;0.03;87.96;100810.83;1761564;80;21815;-40
2022/01/13 00:40:03;;;;;;;59.77;25.00;;;;;;;-0.08;88.20;100783.11;1761540;81;20983;-40
2022/01/13 00:42:29;;;;;;;60.85;23.80;;;;;;;0.02;87.80;100756.05;1761472;81;21042;-40
2022/01/13 00:44:54;;;;;;;48.68;21.50;;;;;;;0.03;87.88;100749.61;1761523;81;20952;-40
2022/01/13 00:47:20;;;;;;;53.15;21.52;;;;;;;0.08;87.46;100772.52;1759846;80;21018;-40
2022/01/13 00:49:46;;;;;;;61.75;23.40;;;;;;;0.00;87.52;100775.47;1748199;81;20949;-40
2022/01/13 00:52:12;;;;;;;55.33;20.82;;;;;;;0.00;87.56;100772.87;1748205;81;21043;-39
2022/01/13 00:54:39;;;;;;;50.15;20.52;;;;;;;0.01;87.87;100768.56;1748126;82;20988;-40
2022/01/13 00:57:05;;;;;;;;;;;;;;;-0.06;88.20;100748.22;1750692;81;20956;-40
2022/01/13 00:59:31;;;;;;;54.33;23.65;;;;;;;0.05;87.62;100726.36;1748095;82;20140;-40
2022/01/13 01:01:57;;;;;;;50.15;21.30;;;;;;;0.04;87.55;100713.86;1748121;81;20961;-40
2022/01/13 01:04:24;;;;;;;57.03;22.60;;;;;;;0.01;87.45;100709.08;1748070;81;21028;-40
2022/01/13 01:06:50;;;;;;;47.00;20.05;;;;;;;0.06;87.76;100712.59;1748196;82;20996;-39
2022/01/13 01:09:37;;;;;;;62.27;22.50;;;;;;;0.13;87.68;100724.30;1748098;81;21306;-40
2022/01/13 01:11:52;;;;;;;57.78;22.98;;;;;;;0.13;87.57;100723.00;1746810;81;20941;-41
2022/01/13 01:14:18;;;;;;;;;;;;;;;0.20;87.39;100738.17;1750667;81;20949;-39
2022/01/13 01:16:44;;;;;;;50.67;20.25;;;;;;;0.18;87.04;100754.97;1748328;82;20125;-40
2022/01/13 01:19:12;;;;;;;46.60;19.45;;;;;;;0.16;87.05;100759.27;1748094;81;21520;-39
2022/01/13 01:24:31;;;;;;;53.83;20.32;;;;;;;0.18;86.66;100778.66;1748130;82;21616;-40
2022/01/13 01:26:52;;;;;;;54.85;20.62;;;;;;;0.20;86.75;100776.98;1746838;81;20948;-40
2022/01/13 01:29:35;;;;;;;56.00;22.20;;;;;;;0.16;86.83;100763.14;1747842;81;20940;-40
2022/01/13 01:31:57;;;;;;;64.75;23.85;;;;;;;0.17;86.83;100769.17;1747465;81;21023;-40
2022/01/13 01:34:47;;;;;;;55.30;21.93;;;;;;;0.15;87.01;100766.57;1748150;81;21044;-40
2022/01/13 01:37:02;;;;;;;49.08;19.87;;;;;;;0.21;86.90;100773.95;1747029;81;20949;-39
2022/01/13 01:39:28;;;;;;;57.73;21.50;;;;;;;0.19;86.99;100746.34;1748148;81;21580;-40
2022/01/13 01:41:56;;;;;;;55.05;19.98;;;;;;;0.16;87.27;100738.97;1748109;82;20983;-40
2022/01/13 01:44:29;;;;;;;54.95;19.50;;;;;;;0.08;87.31;100732.43;1747993;81;20996;-40
2022/01/13 01:46:54;;;;;;;56.37;20.65;;;;;;;0.22;86.73;100735.17;1747885;81;21481;-38
2022/01/13 01:49:23;;;;;;;51.90;20.10;;;;;;;0.12;86.90;100742.38;1747864;80;21504;-39
2022/01/13 01:51:57;;;;;;;58.02;21.50;;;;;;;0.11;86.93;100734.17;1747892;81;20993;-39
2022/01/13 01:54:24;;;;;;;52.95;20.08;;;;;;;0.16;86.64;100733.80;1748114;81;21036;-39
2022/01/13 01:56:50;;;;;;;47.17;18.95;;;;;;;0.17;86.52;100729.94;1748123;81;21524;-40
2022/01/13 01:59:20;;;;;;;47.62;19.15;;;;;;;0.13;86.84;100724.30;1748102;81;20964;-39
2022/01/13 02:01:49;;;;;;;47.05;19.80;;;;;;;0.17;86.69;100736.84;1747993;81;20940;-40
2022/01/13 02:04:16;;;;;;;42.10;18.30;;;;;;;0.12;86.91;100741.09;1747998;81;20996;-40
2022/01/13 02:06:44;;;;;;;44.95;18.65;;;;;;;0.01;87.44;100745.28;1748178;82;21425;-40
2022/01/13 02:09:12;;;;;;;45.08;19.55;;;;;;;0.09;87.28;100753.98;1748036;81;20929;-39
2022/01/13 02:11:44;;;;;;;41.73;17.25;;;;;;;0.12;86.97;100751.00;1748017;82;21023;-40
2022/01/13 02:17:12;;;;;;;49.67;20.37;;;;;;;0.10;86.92;100735.90;1748102;81;21426;-39
2022/01/13 02:19:46;;;;;;;55.28;21.20;;;;;;;0.05;87.19;100723.77;1747920;81;21160;-40
2022/01/13 02:22:13;;;;;;;51.35;19.55;;;;;;;0.05;87.14;100724.63;1747966;82;20983;-40
2022/01/13 02:24:39;;;;;;;44.85;18.80;;;;;;;0.08;87.26;100719.94;1748020;81;21496;-40
2022/01/13 02:27:06;;;;;;;50.98;19.48;;;;;;;0.09;87.38;100716.48;1748033;81;20980;-39
2022/01/13 02:29:33;;;;;;;46.90;18.48;;;;;;;0.10;87.28;100707.87;1748180;81;21521;-40
2022/01/13 02:31:59;;;;;;;50.40;19.75;;;;;;;0.02;87.80;100699.16;1748180;81;20976;-40
2022/01/13 02:34:25;;;;;;;46.48;20.95;;;;;;;0.04;87.80;100693.57;1747980;81;21008;-40
2022/01/13 02:36:55;;;;;;;51.02;21.17;;;;;;;0.06;87.44;100699.22;1748046;81;20994;-39
2022/01/13 02:39:22;;;;;;;56.58;21.02;;;;;;;0.01;87.79;100690.54;1748020;81;20992;-40
2022/01/13 02:43:31;;;;;;;52.62;21.00;;;;;;;0.16;87.86;100694.99;1800428;79;22292;-38
2022/01/13 02:48:31;;;;;;;50.03;20.97;;;;;;;0.07;88.03;100678.95;1761803;81;20944;-38
2022/01/13 02:50:59;;;;;;;47.83;21.37;;;;;;;0.07;88.17;100679.39;1761981;81;20999;-38
2022/01/13 02:53:25;;;;;;;39.30;18.17;;;;;;;0.09;88.11;100693.20;1761854;81;21010;-38
2022/01/13 02:55:56;;;;;;;42.17;19.42;;;;;;;0.14;87.98;100704.03;1761834;81;21531;-38
2022/01/13 02:58:19;;;;;;;43.55;19.52;;;;;;;0.14;87.49;100705.76;1761296;80;20991;-38
2022/01/13 03:00:45;;;;;;;37.35;18.17;;;;;;;0.09;87.68;100699.66;1761926;81;21560;-38
2022/01/13 03:03:12;;;;;;;39.88;18.45;;;;;;;0.05;87.91;100690.15;1761528;80;21568;-38
2022/01/13 03:05:39;;;;;;;40.92;19.80;;;;;;;0.04;88.00;100700.92;1761951;81;20992;-39
2022/01/13 03:08:07;;;;;;;34.67;16.82;;;;;;;0.03;88.07;100689.27;1762062;81;20991;-38
2022/01/13 03:10:33;;;;;;;34.30;16.20;;;;;;;0.01;88.33;100671.58;1761754;80;21026;-38
2022/01/13 03:13:00;;;;;;;46.05;20.50;;;;;;;0.02;88.61;100683.64;1761728;80;21015;-38
2022/01/13 03:15:26;;;;;;;40.38;19.25;;;;;;;0.03;88.09;100675.05;1762017;81;21070;-39
2022/01/13 03:17:52;;;;;;;38.45;18.48;;;;;;;-0.05;88.85;100673.68;1761801;81;20995;-38
2022/01/13 03:20:19;;;;;;;43.60;19.23;;;;;;;-0.02;88.70;100670.70;1761834;80;20967;-39
2022/01/13 03:22:44;;;;;;;46.98;21.48;;;;;;;0.03;88.74;100673.31;1762017;81;21484;-39
2022/01/13 03:25:12;;;;;;;44.25;21.70;;;;;;;0.07;88.81;100675.07;1761773;81;20963;-39
2022/01/13 03:27:40;;;;;;;45.98;20.20;;;;;;;0.07;88.81;100675.07;1761759;81;20999;-39
2022/01/13 03:30:09;;;;;;;37.67;19.27;;;;;;;0.09;88.85;100678.97;1761700;81;21441;-39
2022/01/13 03:32:37;;;;;;;41.80;19.37;;;;;;;0.07;89.04;100680.67;1761953;81;20986;-39
2022/01/13 03:35:06;;;;;;;38.33;18.48;;;;;;;0.03;89.33;100670.73;1761765;81;20995;-39
2022/01/13 03:37:32;;;;;;;35.58;18.55;;;;;;;-0.03;89.78;100657.75;1761727;81;21444;-39
2022/01/13 03:39:59;;;;;;;33.90;18.07;;;;;;;-0.07;89.70;100655.55;1761726;80;20987;-39
2022/01/13 03:42:25;;;;;;;35.95;18.02;;;;;;;-0.09;90.11;100662.84;1761684;80;21039;-39
2022/01/13 03:44:51;;;;;;;35.05;18.48;;;;;;;-0.06;89.85;100662.45;1762076;81;21019;-39
2022/01/13 03:47:17;;;;;;;38.05;19.75;;;;;;;-0.06;89.45;100655.98;1762019;81;21034;-39
2022/01/13 03:49:43;;;;;;;34.18;19.12;;;;;;;-0.05;89.56;100658.16;1762013;81;21030;-39
2022/01/13 03:52:21;;;;;;;43.85;21.20;;;;;;;-0.14;90.16;100660.23;1762152;81;21810;-39
2022/01/13 03:55:32;;;;;;;36.58;20.43;;;;;;;-0.10;90.43;100661.98;1759893;81;21046;-39
2022/01/13 03:58:44;;;;;;;41.42;19.37;;;;;;;-0.05;90.01;100663.34;1761489;80;21488;-39
2022/01/13 04:01:25;;;;;;;45.67;21.50;;;;;;;-0.08;90.31;100657.69;1761382;81;20979;-39
2022/01/13 04:03:50;;;;;;;35.92;19.17;;;;;;;-0.10;90.41;100653.37;1759287;81;20995;-39
2022/01/13 04:06:22;;;;;;;32.42;17.23;;;;;;;-0.06;90.70;100650.81;1761443;81;20983;-39
2022/01/13 04:08:49;;;;;;;45.25;21.80;;;;;;;-0.08;91.07;100657.69;1761580;81;20963;-39
2022/01/13 04:11:17;;;;;;;;;;;;;;;-0.06;90.91;100655.98;1764067;81;20999;-39
2022/01/13 04:14:05;;;;;;;37.15;18.45;;;;;;;-0.03;90.81;100658.61;1761552;80;20104;-40
2022/01/13 04:16:34;;;;;;;39.33;21.23;;;;;;;-0.03;90.83;100654.73;1761636;81;21014;-39
2022/01/13 04:19:05;;;;;;;43.13;21.02;;;;;;;-0.05;90.75;100653.85;1761573;81;21663;-39
2022/01/13 04:21:33;;;;;;;40.78;20.77;;;;;;;-0.08;91.27;100640.88;1761386;81;21535;-39
2022/01/13 04:23:59;;;;;;;45.55;22.75;;;;;;;-0.01;90.82;100621.13;1761461;81;20975;-39
2022/01/13 04:26:31;;;;;;;48.68;22.70;;;;;;;-0.02;90.74;100633.20;1761479;80;21429;-39
2022/01/13 04:29:18;;;;;;;42.53;21.10;;;;;;;-0.11;91.26;100629.64;1761541;81;20983;-38
2022/01/13 04:31:32;;;;;;;49.05;23.07;;;;;;;-0.05;92.01;100620.67;1759609;81;20967;-39
2022/01/13 04:33:58;;;;;;;48.23;24.52;;;;;;;-0.06;91.92;100613.31;1761442;81;20975;-39
2022/01/13 04:36:23;;;;;;;45.88;22.40;;;;;;;-0.01;92.24;100620.69;1761518;81;21472;-39
2022/01/13 04:38:49;;;;;;;45.83;22.73;;;;;;;0.08;91.89;100611.30;1761619;81;20991;-39
2022/01/13 04:41:25;;;;;;;53.02;23.25;;;;;;;0.04;91.92;100601.75;1761449;81;20987;-39
2022/01/13 04:43:43;;;;;;;;;;;;;;;0.01;91.91;100591.41;1750693;80;21000;-40
2022/01/13 04:46:08;;;;;;;42.23;20.27;;;;;;;0.12;91.59;100601.41;1748115;81;20124;-40
2022/01/13 04:48:34;;;;;;;45.83;21.02;;;;;;;0.14;91.65;100595.38;1748047;81;20956;-40
2022/01/13 04:51:00;;;;;;;42.20;20.25;;;;;;;0.06;91.94;100588.00;1748202;81;21053;-40
2022/01/13 04:53:25;;;;;;;43.87;22.15;;;;;;;0.12;91.98;100582.01;1748195;81;21496;-39
2022/01/13 04:55:57;;;;;;;42.62;22.27;;;;;;;0.13;92.01;100591.08;1748181;81;20983;-40
2022/01/13 04:58:21;;;;;;;;;;;;;;;0.08;92.58;100587.58;1750341;81;20952;-40
2022/01/13 05:00:47;;;;;;;35.38;19.27;;;;;;;0.16;92.55;100597.98;1747988;81;20097;-39
2022/01/13 05:03:13;;;;;;;38.30;20.55;;;;;;;0.09;92.61;100604.84;1748244;81;20992;-40
2022/01/13 05:05:39;;;;;;;36.20;18.73;;;;;;;0.10;92.67;100606.56;1748000;81;20995;-39
2022/01/13 05:08:05;;;;;;;33.53;19.23;;;;;;;0.17;92.66;100608.78;1748106;81;20980;-39
2022/01/13 05:10:31;;;;;;;38.10;19.73;;;;;;;0.17;92.34;100604.91;1748094;81;20968;-40
2022/01/13 05:12:57;;;;;;;31.62;17.23;;;;;;;0.21;92.16;100604.50;1748125;81;21030;-39
2022/01/13 05:15:28;;;;;;;27.17;15.70;;;;;;;0.25;92.49;100589.44;1748293;81;21489;-46
2022/01/13 05:18:08;;;;;;;35.28;17.95;;;;;;;0.26;92.46;100587.30;1747196;81;20976;-40
2022/01/13 05:20:37;;;;;;;39.42;20.08;;;;;;;0.30;92.67;100589.91;1746944;81;21330;-40
2022/01/13 05:22:56;;;;;;;33.28;17.80;;;;;;;0.33;92.51;100580.02;1747381;81;21509;-40
2022/01/13 05:25:22;;;;;;;40.33;19.48;;;;;;;0.30;92.60;100582.58;1748044;81;20990;-40
2022/01/13 05:27:48;;;;;;;31.80;18.23;;;;;;;0.32;92.28;100577.84;1748057;81;21019;-40
2022/01/13 05:30:16;;;;;;;34.98;19.23;;;;;;;0.27;92.60;100587.28;1748277;82;20991;-40
2022/01/13 05:32:42;;;;;;;36.80;19.32;;;;;;;0.29;92.56;100583.02;1748027;81;21446;-40
2022/01/13 05:35:09;;;;;;;34.15;18.20;;;;;;;0.29;92.74;100584.31;1748061;81;20979;-39
2022/01/13 05:37:35;;;;;;;28.62;16.30;;;;;;;0.28;92.95;100592.91;1748357;81;20984;-40
2022/01/13 05:40:00;;;;;;;34.92;18.25;;;;;;;0.35;92.64;100592.11;1748174;81;21877;-40
2022/01/13 05:42:26;;;;;;;33.67;16.62;;;;;;;0.25;92.74;100590.30;1751427;81;21049;-40
2022/01/13 05:44:52;;;;;;;30.57;17.10;;;;;;;0.33;92.48;100588.64;1761326;81;20987;-40
2022/01/13 05:47:18;;;;;;;28.67;16.07;;;;;;;0.21;92.91;100585.10;1761331;81;20983;-40
2022/01/13 05:49:44;;;;;;;27.82;15.30;;;;;;;0.32;93.09;100576.55;1761385;81;21031;-40
2022/01/13 05:52:12;;;;;;;24.57;14.55;;;;;;;0.28;92.72;100574.80;1761329;81;20967;-39
2022/01/13 05:54:39;;;;;;;25.92;14.45;;;;;;;0.21;92.79;100569.14;1761330;81;20995;-39
2022/01/13 05:57:06;;;;;;;23.60;14.53;;;;;;;0.19;93.00;100566.98;1761520;81;21017;-40
2022/01/13 05:59:32;;;;;;;24.70;15.00;;;;;;;0.20;93.18;100549.32;1761680;81;21434;-40
2022/01/13 06:01:59;;;;;;;23.38;13.30;;;;;;;0.23;93.08;100549.31;1761426;81;21027;-39
2022/01/13 06:04:24;;;;;;;19.80;12.95;;;;;;;0.28;92.88;100557.12;1761367;81;20982;-40
2022/01/13 06:06:50;;;;;;;20.23;12.35;;;;;;;0.27;92.69;100569.17;1761379;81;20983;-40
2022/01/13 06:09:16;;;;;;;26.07;13.78;;;;;;;0.27;92.88;100571.77;1761436;81;21019;-40
2022/01/13 06:11:52;;;;;;;22.55;14.00;;;;;;;0.22;93.14;100581.23;1761429;81;20987;-39
2022/01/13 06:14:10;;;;;;;23.62;13.78;;;;;;;0.28;93.19;100594.20;1760130;81;20976;-40
2022/01/13 06:16:36;;;;;;;22.87;13.32;;;;;;;0.23;93.65;100579.07;1761335;81;20995;-39
2022/01/13 06:19:02;;;;;;;19.77;12.40;;;;;;;0.28;93.39;100573.51;1761400;81;21026;-39
2022/01/13 06:21:28;;;;;;;24.85;14.23;;;;;;;0.22;93.45;100570.00;1761339;81;21536;-40
2022/01/13 06:23:54;;;;;;;21.20;13.72;;;;;;;0.29;93.19;100564.91;1761421;81;21383;-39
2022/01/13 06:26:20;;;;;;;21.17;13.55;;;;;;;0.30;93.12;100564.47;1761385;81;21459;-39
2022/01/13 06:28:46;;;;;;;21.70;14.65;;;;;;;0.28;93.32;100556.69;1761306;80;21022;-39
2022/01/13 06:31:12;;;;;;;23.67;15.08;;;;;;;0.30;93.40;100557.56;1761469;81;20983;-39
2022/01/13 06:33:37;;;;;;;23.85;15.05;;;;;;;0.26;93.81;100545.47;1761356;81;20991;-39
2022/01/13 06:36:07;;;;;;;21.68;13.40;;;;;;;0.30;94.02;100542.48;1761377;80;21030;-40
2022/01/13 06:38:33;;;;;;;23.80;14.87;;;;;;;0.30;93.90;100539.45;1761451;81;20995;-39
2022/01/13 06:41:01;;;;;;;24.47;15.75;;;;;;;0.30;93.83;100529.10;1761465;81;21460;-38
2022/01/13 06:43:28;;;;;;;23.60;14.83;;;;;;;0.34;93.58;100515.32;1761201;80;21006;-39
2022/01/13 06:45:54;;;;;;;23.35;15.15;;;;;;;0.34;93.44;100517.05;1761476;81;20995;-39
2022/01/13 06:48:20;;;;;;;22.95;15.05;;;;;;;0.25;93.82;100528.20;1761407;81;20964;-39
2022/01/13 06:50:46;;;;;;;24.72;14.73;;;;;;;0.28;93.92;100518.32;1761355;81;21290;-40
2022/01/13 06:53:12;;;;;;;20.97;13.80;;;;;;;0.29;94.31;100507.98;1761338;81;20991;-44
2022/01/13 06:55:38;;;;;;;20.00;13.22;;;;;;;0.28;94.34;100502.80;1761308;80;21026;-39
2022/01/13 06:58:03;;;;;;;18.50;13.45;;;;;;;0.33;94.17;100502.40;1761364;81;20979;-39
2022/01/13 07:00:30;;;;;;;23.00;14.60;;;;;;;0.28;94.22;100501.06;1761377;81;21026;-39
2022/01/13 07:02:58;;;;;;;21.90;14.60;;;;;;;0.32;94.13;100483.40;1761275;81;20959;-40
2022/01/13 07:05:23;;;;;;;;;;;;;;;0.33;94.32;100477.37;1763884;80;20979;-40
2022/01/13 07:07:49;;;;;;;23.30;14.78;;;;;;;0.28;94.74;100455.78;1761356;81;20105;-40
2022/01/13 07:10:14;;;;;;;17.15;12.10;;;;;;;0.30;94.82;100470.88;1761307;81;21019;-40
2022/01/13 07:12:41;;;;;;;18.62;12.15;;;;;;;0.32;94.99;100468.31;1761293;81;21018;-39
2022/01/13 07:15:10;;;;;;;19.45;12.18;;;;;;;0.30;95.29;100474.77;1761498;81;20987;-39
2022/01/13 07:17:36;;;;;;;20.05;11.90;;;;;;;0.40;95.15;100493.81;1761352;81;21007;-39
2022/01/13 07:20:04;;;;;;;18.90;12.95;;;;;;;0.38;94.97;100489.92;1761391;81;21476;-39
2022/01/13 07:22:30;;;;;;;19.07;13.35;;;;;;;0.43;94.74;100499.42;1761390;81;21022;-39
2022/01/13 07:24:56;;;;;;;19.65;12.82;;;;;;;0.36;94.66;100485.58;1761294;81;21002;-39
2022/01/13 07:27:22;;;;;;;22.25;13.05;;;;;;;0.41;95.09;100498.55;1761570;81;21481;-38
2022/01/13 07:29:48;;;;;;;17.98;12.40;;;;;;;0.43;95.06;100494.25;1761420;81;21023;-39
2022/01/13 07:32:15;;;;;;;20.43;13.25;;;;;;;0.46;94.89;100499.02;1761458;81;21024;-39
2022/01/13 07:34:41;;;;;;;17.83;11.27;;;;;;;0.44;94.85;100494.66;1761717;80;20987;-40
2022/01/13 07:37:08;;;;;;;21.70;12.90;;;;;;;0.48;94.62;100509.38;1761483;81;21484;-39
2022/01/13 07:39:38;;;;;;;20.95;14.45;;;;;;;0.48;94.75;100521.87;1761558;81;20988;-39
2022/01/13 07:42:05;;;;;;;17.77;12.30;;;;;;;0.54;94.42;100503.78;1761427;81;21481;-39
2022/01/13 07:44:32;;;;;;;;;;;;;;;0.53;94.52;100507.25;1764076;80;21047;-39
2022/01/13 07:46:59;;;;;;;18.12;12.10;;;;;;;0.52;94.81;100498.17;1761459;81;20112;-39
2022/01/13 07:49:30;;;;;;;21.45;13.98;;;;;;;0.55;94.82;100494.32;1761606;81;20998;-40
2022/01/13 07:51:56;;;;;;;21.02;13.38;;;;;;;0.62;94.62;100493.48;1761390;81;21049;-38
2022/01/13 07:54:25;;;;;;;19.45;12.78;;;;;;;0.67;94.29;100494.34;1761575;81;20995;-38
2022/01/13 07:56:49;;;;;;;;;;;;;;;0.64;94.30;100474.05;1763938;81;21031;-39
2022/01/13 07:59:15;;;;;;;19.37;11.50;;;;;;;0.67;94.03;100485.29;1761459;81;20113;-39
2022/01/13 08:01:41;;;;;;;22.42;13.25;;;;;;;0.60;94.63;100477.09;1761423;81;21007;-40
2022/01/13 08:04:07;;;;;;;28.67;14.63;;;;;;;0.64;95.11;100480.13;1761458;80;20968;-39
2022/01/13 08:06:32;;;;;;;29.18;16.50;;;;;;;0.67;94.82;100475.38;1761411;80;20955;-39
2022/01/13 08:08:58;;;;;;;22.93;15.32;;;;;;;0.63;95.15;100487.44;1761474;81;20983;-40
2022/01/13 08:11:24;;;;;;;24.45;15.13;;;;;;;0.68;94.95;100492.21;1761485;81;21007;-39
2022/01/13 08:13:49;;;;;;;26.37;14.83;;;;;;;0.67;95.31;100485.29;1761463;81;20995;-40
2022/01/13 08:16:17;;;;;;;31.23;15.10;;;;;;;0.74;95.04;100494.81;1761626;81;21034;-39
2022/01/13 08:21:27;;;;;;;24.55;14.40;;;;;;;0.70;95.92;100486.61;1761672;81;20164;-39
2022/01/13 08:23:52;;;;;;;25.10;14.98;;;;;;;0.76;95.83;100484.47;1761435;80;21044;-38
2022/01/13 08:26:19;;;;;;;28.07;15.30;;;;;;;0.82;95.29;100481.92;1761546;81;21018;-40
2022/01/13 08:28:45;;;;;;;28.12;16.65;;;;;;;0.77;95.54;100486.21;1761446;81;20995;-39
2022/01/13 08:31:10;;;;;;;26.55;15.70;;;;;;;0.81;95.61;100465.94;1761463;81;20986;-41
2022/01/13 08:33:36;;;;;;;31.27;17.15;;;;;;;0.79;95.82;100478.45;1761440;81;21496;-39
2022/01/13 08:36:03;;;;;;;30.85;15.48;;;;;;;0.80;95.99;100472.39;1761507;81;21461;-39
2022/01/13 08:38:29;;;;;;;34.03;18.57;;;;;;;0.70;96.10;100467.19;1761765;81;20995;-39
2022/01/13 08:40:57;;;;;;;32.50;17.12;;;;;;;0.83;96.25;100468.53;1761495;81;21457;-39
2022/01/13 08:43:26;;;;;;;31.62;17.90;;;;;;;0.84;96.20;100478.91;1757520;80;21016;-40
2022/01/13 08:45:53;;;;;;;38.33;18.32;;;;;;;0.91;96.15;100480.66;1748090;81;21000;-39
2022/01/13 08:48:19;;;;;;;35.48;19.07;;;;;;;0.90;95.91;100467.70;1748020;81;20987;-39
2022/01/13 08:50:46;;;;;;;36.23;18.67;;;;;;;0.91;96.17;100461.64;1748093;81;20997;-39
2022/01/13 08:53:14;;;;;;;38.05;20.40;;;;;;;0.89;96.78;100471.13;1748199;81;20968;-39
2022/01/13 08:55:40;;;;;;;37.40;20.95;;;;;;;0.94;96.99;100460.36;1748145;81;21026;-39
2022/01/13 08:58:06;;;;;;;37.80;19.85;;;;;;;0.99;96.74;100462.98;1748194;81;21023;-39
2022/01/13 09:00:36;;;;;;;38.85;20.25;;;;;;;1.01;96.66;100462.11;1748090;81;21465;-39
2022/01/13 09:03:00;;;;;;;42.85;21.02;;;;;;;1.01;96.92;100472.47;1747714;81;21038;-39
2022/01/13 09:05:26;;;;;;;48.85;25.62;;;;;;;1.05;96.85;100476.78;1748155;81;21430;-39
2022/01/13 09:07:52;;;;;;;46.68;22.37;;;;;;;1.11;96.56;100479.82;1748086;81;21369;-40
2022/01/13 09:10:18;;;;;;;43.05;21.42;;;;;;;1.15;96.48;100482.44;1748086;81;21121;-40
2022/01/13 09:12:45;;;;;;;45.05;23.38;;;;;;;1.18;96.22;100485.89;1748048;82;21003;-39
2022/01/13 09:15:32;;;;;;;45.40;22.48;;;;;;;1.07;96.74;100477.66;1748208;81;20987;-39
2022/01/13 09:17:51;;;;;;;46.25;21.82;;;;;;;1.15;96.99;100472.08;1747222;81;21488;-39
2022/01/13 09:20:16;;;;;;;42.45;21.05;;;;;;;1.13;97.25;100462.14;1747909;81;21020;-39
2022/01/13 09:22:41;;;;;;;43.60;23.55;;;;;;;1.14;97.48;100454.78;1748045;81;20987;-40
2022/01/13 09:25:10;;;;;;;42.93;21.77;;;;;;;1.13;97.56;100458.70;1748133;81;20980;-39
2022/01/13 09:27:37;;;;;;;47.93;26.75;;;;;;;1.20;97.22;100450.48;1747994;81;21540;-39
2022/01/13 09:30:03;;;;;;;45.23;24.75;;;;;;;1.15;97.59;100470.78;1747956;81;20992;-40
2022/01/13 09:32:29;;;;;;;46.23;23.33;;;;;;;1.16;97.56;100461.27;1748308;81;20992;-40
2022/01/13 09:34:55;;;;;;;41.05;21.42;;;;;;;1.19;97.71;100453.52;1748043;81;20994;-40
2022/01/13 09:37:21;;;;;;;48.75;23.67;;;;;;;1.26;97.32;100463.47;1748025;81;20987;-39
2022/01/13 09:39:46;;;;;;;40.20;20.30;;;;;;;1.18;97.43;100448.33;1748065;81;20960;-40
2022/01/13 09:42:13;;;;;;;46.18;22.45;;;;;;;1.17;97.80;100453.09;1747966;81;20980;-40
2022/01/13 09:44:39;;;;;;;43.33;23.87;;;;;;;1.14;98.31;100453.48;1757054;80;21054;-39
2022/01/13 09:47:05;;;;;;;44.33;22.90;;;;;;;1.18;98.34;100447.88;1761436;81;21491;-39
2022/01/13 09:49:31;;;;;;;47.67;24.00;;;;;;;1.27;97.82;100443.16;1761367;81;20994;-39
2022/01/13 09:51:57;;;;;;;51.53;24.60;;;;;;;1.17;98.18;100441.43;1761473;81;21464;-39
2022/01/13 09:54:23;;;;;;;46.23;23.55;;;;;;;1.15;98.46;100433.20;1761368;81;20959;-39
2022/01/13 09:56:49;;;;;;;43.13;23.15;;;;;;;1.09;98.53;100429.73;1761349;81;20987;-40
2022/01/13 09:59:15;;;;;;;47.03;24.52;;;;;;;1.13;98.90;100438.83;1761343;81;20975;-40
2022/01/13 10:01:41;;;;;;;50.95;24.27;;;;;;;1.15;98.97;100434.50;1761359;81;21026;-40
2022/01/13 10:04:06;;;;;;;46.35;25.72;;;;;;;1.20;98.97;100421.57;1761347;81;21062;-40
2022/01/13 10:06:43;;;;;;;46.92;23.62;;;;;;;1.25;98.85;100429.33;1761368;81;21494;-39
2022/01/13 10:09:08;;;;;;;56.35;27.58;;;;;;;1.28;98.65;100419.83;1761406;81;21035;-39
2022/01/13 10:11:56;;;;;;;52.67;25.62;;;;;;;1.17;99.05;100406.02;1761360;81;21444;-40
2022/01/13 10:16:59;;;;;;;52.78;24.27;;;;;;;1.31;98.64;100400.81;1761412;81;20991;-39
2022/01/13 10:19:44;;;;;;;53.08;26.60;;;;;;;1.33;98.69;100392.20;1761347;81;20987;-40
2022/01/13 10:22:19;;;;;;;55.83;26.17;;;;;;;1.34;98.48;100391.31;1761257;80;20983;-39
2022/01/13 10:24:58;;;;;;;49.90;25.40;;;;;;;1.32;98.62;100383.13;1761194;81;20983;-40
2022/01/13 10:27:29;;;;;;;51.10;24.60;;;;;;;1.37;98.51;100380.11;1754450;81;21059;-39
2022/01/13 10:29:59;;;;;;;57.33;26.33;;;;;;;1.36;98.69;100391.32;1747163;81;21015;-41
2022/01/13 10:32:39;;;;;;;53.33;26.82;;;;;;;1.37;99.01;100387.88;1761284;81;20964;-38
2022/01/13 10:35:13;;;;;;;50.95;25.68;;;;;;;1.39;99.22;100386.59;1760339;81;20995;-39
2022/01/13 10:37:42;;;;;;;49.93;24.67;;;;;;;1.42;99.00;100378.38;1761344;81;20948;-39
2022/01/13 10:40:26;;;;;;;45.95;24.15;;;;;;;1.43;99.15;100380.09;1761357;81;21030;-39
2022/01/13 10:45:35;;;;;;;48.85;25.45;;;;;;;1.50;98.90;100361.52;1761287;80;20999;-39
2022/01/13 10:48:12;;;;;;;45.88;24.98;;;;;;;1.46;98.51;100367.58;1761458;80;21042;-39
2022/01/13 10:50:57;;;;;;;51.00;24.75;;;;;;;1.40;99.13;100358.08;1760244;81;21069;-39
2022/01/13 10:53:35;;;;;;;49.63;24.82;;;;;;;1.48;99.09;100361.52;1761044;81;21082;-39
2022/01/13 10:56:06;;;;;;;51.80;26.20;;;;;;;1.56;98.61;100358.91;1761353;80;21476;-38
2022/01/13 10:58:37;;;;;;;49.63;25.20;;;;;;;1.54;98.52;100355.45;1761347;81;20987;-38
2022/01/13 11:01:04;;;;;;;48.30;24.25;;;;;;;1.56;98.36;100339.46;1761338;81;21135;-39
2022/01/13 11:03:34;;;;;;;48.33;25.27;;;;;;;1.51;98.61;100334.30;1761566;81;20984;-38
2022/01/13 11:06:03;;;;;;;51.15;24.92;;;;;;;1.59;98.49;100328.23;1760014;81;21109;-39
2022/01/13 11:08:39;;;;;;;51.68;23.92;;;;;;;1.53;98.98;100331.27;1761445;81;21026;-39
2022/01/13 11:11:03;;;;;;;46.92;24.65;;;;;;;1.55;98.85;100332.56;1760981;81;21830;-40
2022/01/13 11:13:35;;;;;;;;;;;;;;;1.62;98.96;100317.84;1764117;80;20987;-40
2022/01/13 11:15:58;;;;;;;52.10;25.17;;;;;;;1.58;99.33;100328.66;1761038;81;20485;-39
2022/01/13 11:18:29;;;;;;;52.80;24.30;;;;;;;1.60;99.57;100330.84;1755071;80;21536;-40
2022/01/13 11:20:56;;;;;;;49.35;24.45;;;;;;;1.63;99.51;100324.33;1740881;81;21062;-38
2022/01/13 11:23:22;;;;;;;;;;;;;;;1.65;99.44;100336.84;1762817;81;21039;-40
2022/01/13 11:25:52;;;;;;;54.05;26.05;;;;;;;1.68;99.31;100332.11;1761882;81;20112;-39
2022/01/13 11:28:20;;;;;;;57.00;25.52;;;;;;;1.65;99.18;100336.84;1760575;81;21022;-39
2022/01/13 11:30:49;;;;;;;64.07;27.07;;;;;;;1.71;98.93;100338.56;1733819;81;21050;-39
2022/01/13 11:33:15;;;;;;;56.95;26.07;;;;;;;1.72;98.79;100337.70;1740865;80;21005;-39
2022/01/13 11:35:53;;;;;;;51.08;26.60;;;;;;;1.69;98.87;100323.03;1774490;80;21522;-40
2022/01/13 11:38:13;;;;;;;51.98;26.52;;;;;;;1.72;99.05;100307.88;1772361;80;21009;-40
2022/01/13 11:40:42;;;;;;;;;;;;;;;1.73;99.05;100308.33;1768797;80;21123;-39
2022/01/13 11:43:35;;;;;;;56.10;26.82;;;;;;;1.72;99.21;100304.84;1765209;80;21441;-39
2022/01/13 11:46:23;;;;;;;53.70;26.00;;;;;;;1.76;99.23;100314.78;1682239;84;21026;-40